createdAt,value
2018-03-04T00:01:00.479Z,113.50
2018-03-04T00:02:01.130Z,106.10
2018-03-04T00:03:01.832Z,108.80
2018-03-04T00:04:02.558Z,108.60
2018-03-04T00:05:03.294Z,106.90
2018-03-04T00:06:04.053Z,111.90
2018-03-04T00:07:05.522Z,104.80
2018-03-04T00:08:06.220Z,113.30
2018-03-04T00:09:06.888Z,113.10
2018-03-04T00:10:07.596Z,111.30
2018-03-04T00:11:08.268Z,115.40
2018-03-04T00:12:09.000Z,102.60
2018-03-04T00:13:09.686Z,92.90
2018-03-04T00:14:10.367Z,109.10
2018-03-04T00:15:12.642Z,102.80
2018-03-04T00:16:13.316Z,98.30
2018-03-04T00:18:14.353Z,110.30
2018-03-04T00:19:15.028Z,108.80
2018-03-04T00:20:15.665Z,112.80
2018-03-04T00:21:16.308Z,108.00
2018-03-04T00:22:16.947Z,106.40
2018-03-04T00:23:17.592Z,117.50
2018-03-04T00:25:18.547Z,111.90
2018-03-04T00:26:19.183Z,117.50
2018-03-04T00:27:19.837Z,120.20
2018-03-04T00:28:20.481Z,119.90
2018-03-04T00:29:21.765Z,116.20
2018-03-04T00:30:22.421Z,114.80
2018-03-04T00:31:23.063Z,116.00
2018-03-04T00:32:23.721Z,114.60
2018-03-04T00:33:24.386Z,92.40
2018-03-04T00:34:25.082Z,107.50
2018-03-04T00:35:25.742Z,111.60
2018-03-04T00:36:26.470Z,112.00
2018-03-04T00:37:27.156Z,115.00
2018-03-04T00:38:29.062Z,107.50
2018-03-04T00:39:29.721Z,108.70
2018-03-04T00:40:31.057Z,111.90
2018-03-04T00:41:32.000Z,113.30
2018-03-04T00:42:32.692Z,99.40
2018-03-04T00:43:33.353Z,102.30
2018-03-04T00:44:34.074Z,109.50
2018-03-04T00:45:34.761Z,109.00
2018-03-04T00:47:35.685Z,109.90
2018-03-04T00:48:36.325Z,111.10
2018-03-04T00:49:36.976Z,103.20
2018-03-04T00:50:37.654Z,103.80
2018-03-04T00:52:38.673Z,97.60
2018-03-04T00:53:39.315Z,98.90
2018-03-04T00:54:39.974Z,91.90
2018-03-04T00:56:40.910Z,95.10
2018-03-04T00:58:41.843Z,86.30
2018-03-04T00:59:42.490Z,81.40
2018-03-04T01:00:43.130Z,80.00
2018-03-04T01:01:43.769Z,71.80
2018-03-04T01:02:44.461Z,72.20
2018-03-04T01:03:45.131Z,79.00
2018-03-04T01:04:45.789Z,70.00
2018-03-04T01:05:46.434Z,92.50
2018-03-04T01:06:47.705Z,81.20
2018-03-04T01:07:48.370Z,84.50
2018-03-04T01:08:49.056Z,102.50
2018-03-04T01:09:49.709Z,86.70
2018-03-04T01:10:50.353Z,98.00
2018-03-04T01:11:51.035Z,103.20
2018-03-04T01:12:51.753Z,99.60
2018-03-04T01:13:52.401Z,97.00
2018-03-04T01:14:53.612Z,103.60
2018-03-04T01:15:54.290Z,89.30
2018-03-04T01:16:54.994Z,98.10
2018-03-04T01:18:55.928Z,98.00
2018-03-04T01:19:56.624Z,87.90
2018-03-04T01:20:57.288Z,82.00
2018-03-04T01:21:57.942Z,71.40
2018-03-04T01:22:58.600Z,72.40
2018-03-04T01:23:59.242Z,71.90
2018-03-04T01:24:59.887Z,75.60
2018-03-04T01:26:00.668Z,69.30
2018-03-04T01:27:01.320Z,75.60
2018-03-04T01:28:01.960Z,71.60
2018-03-04T01:29:02.682Z,85.30
2018-03-04T01:30:03.320Z,71.70
2018-03-04T01:31:04.021Z,73.00
2018-03-04T01:32:04.734Z,69.60
2018-03-04T01:33:05.408Z,71.60
2018-03-04T01:34:06.059Z,89.80
2018-03-04T01:35:06.740Z,93.90
2018-03-04T01:36:07.378Z,98.30
2018-03-04T01:37:08.069Z,96.30
2018-03-04T01:38:08.732Z,100.80
2018-03-04T01:39:09.387Z,86.10
2018-03-04T01:41:10.342Z,67.00
2018-03-04T01:42:11.017Z,62.40
2018-03-04T01:43:11.669Z,63.30
2018-03-04T01:44:12.313Z,57.40
2018-03-04T01:45:12.996Z,55.40
2018-03-04T01:46:13.648Z,62.00
2018-03-04T01:47:14.288Z,64.20
2018-03-04T01:48:14.938Z,53.80
2018-03-04T01:49:15.615Z,57.70
2018-03-04T01:50:16.253Z,53.00
2018-03-04T01:51:16.877Z,58.90
2018-03-04T01:52:17.535Z,55.70
2018-03-04T01:54:18.617Z,47.20
2018-03-04T01:55:19.282Z,49.20
2018-03-04T01:56:19.947Z,56.50
2018-03-04T01:58:20.880Z,56.50
2018-03-04T02:00:21.803Z,50.10
2018-03-04T02:01:22.437Z,53.00
2018-03-04T02:02:23.099Z,59.50
2018-03-04T02:03:24.556Z,51.60
2018-03-04T02:04:25.223Z,51.30
2018-03-04T02:05:25.939Z,55.70
2018-03-04T02:06:26.581Z,46.60
2018-03-04T02:07:27.257Z,49.50
2018-03-04T02:08:27.933Z,53.60
2018-03-04T02:09:28.592Z,62.10
2018-03-04T02:10:29.235Z,47.00
2018-03-04T02:12:30.204Z,56.10
2018-03-04T02:13:30.860Z,60.90
2018-03-04T02:14:31.503Z,81.30
2018-03-04T02:15:32.180Z,66.90
2018-03-04T02:16:32.932Z,57.30
2018-03-04T02:17:33.598Z,65.20
2018-03-04T02:19:34.531Z,92.30
2018-03-04T02:20:35.165Z,79.00
2018-03-04T02:21:35.828Z,96.20
2018-03-04T02:22:36.474Z,85.70
2018-03-04T02:23:37.132Z,68.80
2018-03-04T02:24:37.773Z,67.90
2018-03-04T02:25:38.474Z,85.70
2018-03-04T02:26:41.261Z,78.20
2018-03-04T02:27:41.903Z,66.70
2018-03-04T02:28:43.336Z,79.00
2018-03-04T02:29:43.988Z,71.70
2018-03-04T02:30:44.640Z,65.00
2018-03-04T02:31:45.288Z,64.00
2018-03-04T02:32:46.000Z,69.50
2018-03-04T02:33:46.639Z,82.90
2018-03-04T02:34:47.365Z,77.90
2018-03-04T02:35:48.001Z,76.80
2018-03-04T02:36:48.628Z,77.60
2018-03-04T02:37:49.311Z,85.40
2018-03-04T02:38:49.952Z,61.00
2018-03-04T02:40:50.957Z,72.10
2018-03-04T02:41:51.618Z,67.60
2018-03-04T02:42:52.275Z,64.00
2018-03-04T02:43:52.938Z,80.20
2018-03-04T02:44:53.661Z,71.70
2018-03-04T02:45:54.347Z,66.90
2018-03-04T02:46:54.984Z,69.10
2018-03-04T02:47:55.647Z,60.00
2018-03-04T02:48:56.269Z,59.00
2018-03-04T02:49:56.910Z,59.10
2018-03-04T02:50:57.564Z,55.00
2018-03-04T02:51:58.209Z,59.10
2018-03-04T02:52:58.836Z,56.20
2018-03-04T02:53:59.470Z,67.60
2018-03-04T02:55:00.138Z,60.80
2018-03-04T02:56:00.862Z,65.40
2018-03-04T02:57:01.524Z,57.90
2018-03-04T02:59:02.443Z,58.90
2018-03-04T03:00:03.216Z,61.40
2018-03-04T03:02:04.148Z,50.40
2018-03-04T03:03:04.870Z,54.60
2018-03-04T03:04:05.507Z,50.70
2018-03-04T03:05:06.137Z,51.20
2018-03-04T03:07:07.080Z,49.90
2018-03-04T03:08:07.688Z,45.70
2018-03-04T03:09:08.297Z,41.60
2018-03-04T03:10:08.916Z,43.20
2018-03-04T03:11:09.557Z,40.20
2018-03-04T03:12:10.190Z,43.20
2018-03-04T03:13:10.813Z,50.00
2018-03-04T03:14:11.453Z,40.90
2018-03-04T03:15:12.115Z,40.60
2018-03-04T03:16:12.729Z,40.10
2018-03-04T03:17:13.364Z,43.20
2018-03-04T03:18:14.033Z,41.90
2018-03-04T03:19:14.676Z,37.40
2018-03-04T03:20:16.168Z,36.50
2018-03-04T03:21:16.828Z,40.10
2018-03-04T03:22:17.500Z,48.70
2018-03-04T03:24:18.449Z,43.60
2018-03-04T03:26:19.373Z,50.50
2018-03-04T03:27:20.025Z,40.50
2018-03-04T03:28:20.657Z,43.40
2018-03-04T03:29:21.288Z,46.00
2018-03-04T03:31:22.190Z,45.60
2018-03-04T03:32:22.832Z,57.40
2018-03-04T03:33:23.465Z,63.60
2018-03-04T03:34:24.107Z,56.30
2018-03-04T03:36:25.028Z,50.50
2018-03-04T03:37:25.767Z,62.90
2018-03-04T03:38:26.467Z,53.10
2018-03-04T03:39:27.186Z,51.20
2018-03-04T03:40:27.833Z,53.60
2018-03-04T03:41:28.465Z,51.10
2018-03-04T03:42:29.128Z,68.20
2018-03-04T03:43:29.777Z,61.80
2018-03-04T03:44:30.470Z,54.00
2018-03-04T03:45:31.130Z,49.80
2018-03-04T03:46:31.794Z,58.20
2018-03-04T03:47:32.474Z,55.60
2018-03-04T03:48:33.113Z,45.30
2018-03-04T03:49:33.780Z,67.60
2018-03-04T03:50:34.414Z,67.10
2018-03-04T03:52:35.370Z,48.60
2018-03-04T03:53:36.027Z,62.70
2018-03-04T03:54:36.649Z,53.20
2018-03-04T03:55:37.264Z,50.40
2018-03-04T03:56:37.907Z,53.90
2018-03-04T03:58:38.818Z,53.30
2018-03-04T03:59:39.459Z,58.20
2018-03-04T04:00:40.081Z,61.50
2018-03-04T04:01:40.700Z,65.70
2018-03-04T04:02:41.353Z,64.70
2018-03-04T04:03:42.002Z,53.30
2018-03-04T04:04:42.636Z,58.30
2018-03-04T04:05:43.282Z,61.40
2018-03-04T04:06:43.908Z,50.00
2018-03-04T04:07:44.527Z,47.60
2018-03-04T04:08:45.174Z,46.00
2018-03-04T04:09:45.817Z,48.20
2018-03-04T04:10:46.451Z,50.10
2018-03-04T04:11:47.082Z,44.60
2018-03-04T04:12:47.769Z,44.20
2018-03-04T04:13:48.436Z,48.20
2018-03-04T04:14:49.068Z,47.90
2018-03-04T04:15:49.705Z,44.00
2018-03-04T04:17:50.603Z,50.50
2018-03-04T04:18:51.259Z,48.20
2018-03-04T04:19:51.899Z,48.70
2018-03-04T04:20:52.523Z,57.20
2018-03-04T04:21:53.180Z,78.20
2018-03-04T04:22:53.811Z,66.30
2018-03-04T04:23:54.466Z,90.90
2018-03-04T04:24:55.115Z,73.00
2018-03-04T04:25:55.738Z,83.20
2018-03-04T04:26:56.382Z,84.20
2018-03-04T04:27:57.019Z,96.10
2018-03-04T04:28:57.693Z,98.30
2018-03-04T04:29:58.323Z,115.90
2018-03-04T04:30:58.964Z,112.20
2018-03-04T04:31:59.634Z,115.20
2018-03-04T04:34:00.576Z,104.30
2018-03-04T04:36:01.507Z,113.90
2018-03-04T04:37:02.162Z,115.00
2018-03-04T04:38:02.803Z,108.10
2018-03-04T04:39:03.436Z,117.50
2018-03-04T04:40:04.076Z,100.80
2018-03-04T04:41:04.758Z,97.90
2018-03-04T04:43:05.679Z,98.10
2018-03-04T04:44:06.909Z,120.40
2018-03-04T04:45:07.542Z,113.00
2018-03-04T04:46:08.196Z,112.30
2018-03-04T04:48:09.112Z,101.40
2018-03-04T04:49:09.811Z,107.40
2018-03-04T04:50:11.158Z,122.20
2018-03-04T04:51:11.819Z,117.90
2018-03-04T04:52:12.494Z,128.70
2018-03-04T04:53:13.153Z,128.20
2018-03-04T04:54:13.828Z,128.70
2018-03-04T04:55:14.472Z,110.50
2018-03-04T04:56:15.108Z,134.10
2018-03-04T04:57:15.749Z,137.90
2018-03-04T04:58:16.360Z,137.70
2018-03-04T04:59:17.025Z,137.00
2018-03-04T05:00:17.655Z,146.10
2018-03-04T05:01:18.287Z,123.90
2018-03-04T05:02:18.941Z,125.90
2018-03-04T05:03:19.563Z,134.80
2018-03-04T05:04:20.281Z,136.50
2018-03-04T05:05:20.948Z,142.00
2018-03-04T05:06:21.615Z,119.00
2018-03-04T05:07:22.235Z,140.60
2018-03-04T05:08:22.907Z,120.40
2018-03-04T05:09:23.623Z,114.00
2018-03-04T05:10:24.343Z,93.10
2018-03-04T05:11:24.988Z,107.00
2018-03-04T05:12:25.630Z,125.90
2018-03-04T05:13:26.300Z,103.90
2018-03-04T05:14:26.960Z,119.50
2018-03-04T05:15:27.635Z,115.10
2018-03-04T05:16:28.278Z,123.90
2018-03-04T05:17:28.917Z,117.90
2018-03-04T05:18:29.557Z,108.00
2018-03-04T05:19:30.231Z,115.00
2018-03-04T05:20:30.885Z,121.40
2018-03-04T05:21:31.533Z,88.40
2018-03-04T05:22:32.242Z,124.30
2018-03-04T05:23:32.915Z,133.40
2018-03-04T05:24:33.608Z,122.20
2018-03-04T05:25:34.268Z,114.30
2018-03-04T05:26:34.897Z,126.10
2018-03-04T05:27:35.540Z,131.30
2018-03-04T05:28:36.166Z,126.50
2018-03-04T05:30:37.070Z,120.80
2018-03-04T05:31:37.718Z,128.00
2018-03-04T05:32:38.327Z,123.20
2018-03-04T05:33:38.984Z,125.70
2018-03-04T05:34:39.630Z,123.70
2018-03-04T05:35:40.314Z,108.00
2018-03-04T05:36:40.994Z,128.50
2018-03-04T05:37:41.636Z,131.20
2018-03-04T05:38:43.153Z,130.00
2018-03-04T05:39:43.817Z,139.00
2018-03-04T05:40:44.512Z,96.80
2018-03-04T05:41:45.177Z,99.90
2018-03-04T05:42:45.821Z,113.90
2018-03-04T05:43:46.481Z,102.70
2018-03-04T05:45:47.414Z,82.00
2018-03-04T05:46:48.055Z,66.90
2018-03-04T05:47:48.747Z,62.20
2018-03-04T05:48:49.418Z,72.00
2018-03-04T05:49:50.048Z,90.40
2018-03-04T05:50:50.779Z,82.70
2018-03-04T05:51:51.434Z,102.90
2018-03-04T05:52:52.057Z,77.00
2018-03-04T05:53:52.691Z,99.20
2018-03-04T05:54:53.409Z,98.40
2018-03-04T05:55:54.078Z,61.60
2018-03-04T05:56:54.713Z,78.30
2018-03-04T05:57:55.376Z,94.90
2018-03-04T05:58:56.078Z,98.00
2018-03-04T05:59:56.744Z,84.60
2018-03-04T06:00:57.402Z,79.00
2018-03-04T06:01:58.070Z,85.80
2018-03-04T06:02:58.693Z,94.80
2018-03-04T06:03:59.349Z,104.50
2018-03-04T06:04:59.989Z,101.60
2018-03-04T06:06:00.674Z,111.60
2018-03-04T06:08:01.610Z,111.60
2018-03-04T06:10:02.519Z,60.30
2018-03-04T06:11:03.207Z,53.80
2018-03-04T06:12:03.845Z,60.10
2018-03-04T06:13:04.531Z,45.20
2018-03-04T06:14:05.172Z,52.80
2018-03-04T06:15:05.854Z,53.60
2018-03-04T06:16:06.520Z,56.00
2018-03-04T06:17:07.134Z,57.90
2018-03-04T06:18:07.752Z,48.80
2018-03-04T06:19:08.378Z,70.70
2018-03-04T06:20:09.034Z,44.50
2018-03-04T06:21:09.721Z,51.70
2018-03-04T06:22:10.337Z,56.80
2018-03-04T06:23:12.482Z,64.40
2018-03-04T06:24:13.125Z,58.60
2018-03-04T06:25:13.786Z,52.20
2018-03-04T06:26:14.423Z,52.60
2018-03-04T06:27:15.067Z,64.20
2018-03-04T06:28:15.708Z,49.20
2018-03-04T06:29:16.352Z,48.70
2018-03-04T06:30:16.995Z,47.80
2018-03-04T06:31:17.659Z,54.20
2018-03-04T06:32:18.279Z,55.40
2018-03-04T06:33:18.957Z,52.50
2018-03-04T06:34:19.592Z,54.80
2018-03-04T06:35:20.223Z,82.60
2018-03-04T06:36:20.895Z,84.20
2018-03-04T06:37:21.537Z,90.90
2018-03-04T06:38:22.876Z,87.80
2018-03-04T06:39:23.543Z,97.20
2018-03-04T06:40:24.183Z,102.50
2018-03-04T06:41:24.853Z,101.00
2018-03-04T06:43:25.832Z,98.90
2018-03-04T06:44:26.465Z,102.20
2018-03-04T06:45:27.134Z,97.60
2018-03-04T06:46:27.785Z,90.80
2018-03-04T06:47:28.441Z,94.80
2018-03-04T06:48:29.081Z,91.00
2018-03-04T06:49:29.722Z,71.30
2018-03-04T06:50:30.347Z,91.90
2018-03-04T06:51:31.007Z,87.90
2018-03-04T06:52:31.667Z,93.20
2018-03-04T06:53:32.324Z,89.50
2018-03-04T06:54:33.484Z,78.00
2018-03-04T06:56:34.695Z,78.00
2018-03-04T06:57:35.507Z,85.30
2018-03-04T06:58:36.510Z,92.80
2018-03-04T06:59:37.252Z,81.60
2018-03-04T07:00:40.302Z,61.70
2018-03-04T07:01:41.016Z,68.20
2018-03-04T07:02:41.700Z,71.90
2018-03-04T07:03:42.363Z,71.30
2018-03-04T07:04:43.079Z,72.90
2018-03-04T07:05:43.736Z,70.50
2018-03-04T07:06:44.421Z,65.80
2018-03-04T07:07:45.130Z,61.60
2018-03-04T07:09:46.173Z,63.40
2018-03-04T07:10:46.879Z,61.20
2018-03-04T07:11:47.588Z,63.20
2018-03-04T07:12:48.279Z,61.40
2018-03-04T07:13:48.929Z,47.90
2018-03-04T07:14:50.415Z,52.70
2018-03-04T07:15:51.081Z,57.60
2018-03-04T07:17:52.014Z,58.80
2018-03-04T07:18:52.645Z,55.70
2018-03-04T07:19:53.339Z,56.20
2018-03-04T07:20:54.015Z,52.50
2018-03-04T07:21:54.664Z,56.40
2018-03-04T07:22:55.314Z,59.70
2018-03-04T07:23:55.975Z,45.90
2018-03-04T07:24:56.638Z,43.10
2018-03-04T07:25:57.823Z,42.40
2018-03-04T07:26:58.600Z,44.60
2018-03-04T07:27:59.295Z,51.70
2018-03-04T07:29:00.061Z,45.20
2018-03-04T07:30:00.718Z,44.60
2018-03-04T07:31:01.438Z,42.10
2018-03-04T07:32:02.152Z,44.40
2018-03-04T07:33:03.607Z,38.20
2018-03-04T07:34:04.281Z,41.10
2018-03-04T07:35:04.989Z,38.00
2018-03-04T07:36:05.697Z,36.10
2018-03-04T07:37:06.341Z,34.60
2018-03-04T07:38:07.614Z,34.60
2018-03-04T07:39:08.451Z,35.10
2018-03-04T07:40:09.075Z,36.50
2018-03-04T07:41:09.719Z,26.70
2018-03-04T07:42:10.373Z,31.30
2018-03-04T07:43:11.045Z,28.00
2018-03-04T07:44:11.679Z,25.20
2018-03-04T07:45:12.303Z,26.30
2018-03-04T07:46:12.957Z,28.10
2018-03-04T07:47:13.593Z,30.00
2018-03-04T07:48:14.246Z,40.20
2018-03-04T07:49:14.869Z,42.40
2018-03-04T07:50:15.517Z,35.30
2018-03-04T07:51:16.144Z,35.80
2018-03-04T07:52:16.800Z,53.50
2018-03-04T07:53:17.460Z,49.20
2018-03-04T07:54:18.103Z,28.50
2018-03-04T07:55:18.736Z,24.30
2018-03-04T07:56:19.410Z,26.90
2018-03-04T07:58:20.339Z,24.40
2018-03-04T07:59:20.967Z,22.20
2018-03-04T08:00:21.613Z,23.00
2018-03-04T08:02:22.526Z,23.80
2018-03-04T08:03:23.186Z,21.60
2018-03-04T08:04:23.833Z,21.80
2018-03-04T08:05:24.488Z,22.00
2018-03-04T08:06:25.135Z,24.10
2018-03-04T08:07:25.775Z,21.20
2018-03-04T08:08:26.432Z,24.10
2018-03-04T08:09:27.070Z,21.60
2018-03-04T08:10:27.746Z,20.90
2018-03-04T08:11:28.395Z,20.80
2018-03-04T08:12:29.100Z,20.90
2018-03-04T08:13:29.765Z,23.10
2018-03-04T08:14:30.935Z,22.50
2018-03-04T08:15:31.607Z,20.80
2018-03-04T08:16:32.300Z,22.40
2018-03-04T08:17:32.986Z,21.70
2018-03-04T08:19:33.904Z,22.10
2018-03-04T08:20:34.614Z,23.20
2018-03-04T08:21:35.256Z,22.30
2018-03-04T08:22:35.939Z,21.50
2018-03-04T08:23:36.621Z,20.70
2018-03-04T08:24:37.320Z,19.80
2018-03-04T08:25:37.986Z,19.40
2018-03-04T08:26:38.627Z,20.00
2018-03-04T08:27:39.249Z,21.10
2018-03-04T08:28:40.162Z,20.80
2018-03-04T08:29:40.610Z,22.00
2018-03-04T08:30:41.243Z,21.90
2018-03-04T08:32:42.149Z,20.40
2018-03-04T08:33:42.794Z,21.70
2018-03-04T08:34:43.466Z,21.60
2018-03-04T08:35:44.086Z,23.20
2018-03-04T08:36:45.748Z,20.00
2018-03-04T08:37:46.394Z,20.30
2018-03-04T08:38:47.054Z,20.30
2018-03-04T08:39:47.715Z,20.70
2018-03-04T08:40:48.318Z,17.60
2018-03-04T08:41:49.521Z,19.70
2018-03-04T08:42:50.167Z,19.40
2018-03-04T08:43:51.569Z,20.20
2018-03-04T08:44:52.257Z,22.20
2018-03-04T08:45:53.741Z,21.40
2018-03-04T08:46:54.404Z,22.50
2018-03-04T08:47:55.066Z,21.10
2018-03-04T08:48:56.269Z,21.30
2018-03-04T08:49:56.954Z,21.30
2018-03-04T08:50:58.278Z,20.40
2018-03-04T08:51:58.911Z,20.10
2018-03-04T08:52:59.560Z,22.00
2018-03-04T08:54:00.225Z,21.90
2018-03-04T08:55:00.885Z,22.10
2018-03-04T08:56:01.602Z,21.30
2018-03-04T08:57:02.279Z,22.20
2018-03-04T08:58:02.996Z,21.90
2018-03-04T08:59:03.693Z,23.90
2018-03-04T09:00:04.359Z,22.60
2018-03-04T09:01:05.039Z,21.00
2018-03-04T09:02:05.690Z,23.00
2018-03-04T09:03:06.330Z,24.70
2018-03-04T09:04:07.008Z,23.30
2018-03-04T09:05:07.652Z,34.80
2018-03-04T09:06:08.289Z,26.50
2018-03-04T09:07:08.933Z,39.60
2018-03-04T09:09:09.851Z,26.20
2018-03-04T09:10:10.539Z,26.00
2018-03-04T09:11:11.289Z,32.30
2018-03-04T09:12:11.967Z,28.30
2018-03-04T09:13:12.629Z,29.60
2018-03-04T09:14:13.314Z,28.20
2018-03-04T09:15:14.054Z,30.60
2018-03-04T09:16:14.733Z,28.80
2018-03-04T09:17:15.416Z,29.70
2018-03-04T09:18:16.083Z,33.60
2018-03-04T09:19:17.996Z,34.90
2018-03-04T09:20:18.676Z,40.00
2018-03-04T09:21:19.353Z,49.80
2018-03-04T09:22:20.004Z,71.80
2018-03-04T09:24:21.053Z,1999.90
2018-03-04T09:25:21.705Z,1999.90
2018-03-04T09:26:22.361Z,1999.90
2018-03-04T09:28:23.350Z,1999.90
2018-03-04T09:29:23.966Z,1999.90
2018-03-04T09:30:24.679Z,1999.90
2018-03-04T09:31:26.117Z,1999.90
2018-03-04T09:32:26.843Z,1999.90
2018-03-04T09:33:27.499Z,1999.90
2018-03-04T09:34:28.145Z,1999.90
2018-03-04T09:35:28.808Z,1999.90
2018-03-04T09:36:29.484Z,1999.90
2018-03-04T09:37:30.165Z,1999.90
2018-03-04T09:38:30.827Z,1999.90
2018-03-04T09:39:31.516Z,446.50
2018-03-04T09:40:32.157Z,226.30
2018-03-04T09:41:32.774Z,103.80
2018-03-04T09:42:33.468Z,64.00
2018-03-04T09:43:34.088Z,32.20
2018-03-04T09:44:35.265Z,27.00
2018-03-04T09:45:35.931Z,23.00
2018-03-04T09:46:36.584Z,21.90
2018-03-04T09:47:37.255Z,20.90
2018-03-04T09:48:37.963Z,21.30
2018-03-04T09:49:38.672Z,21.90
2018-03-04T09:50:39.376Z,20.10
2018-03-04T09:51:41.398Z,20.80
2018-03-04T09:52:42.046Z,20.60
2018-03-04T09:53:42.688Z,21.30
2018-03-04T09:54:43.398Z,22.00
2018-03-04T09:55:44.032Z,21.20
2018-03-04T09:56:44.726Z,17.40
2018-03-04T09:57:46.076Z,18.20
2018-03-04T09:58:46.735Z,19.40
2018-03-04T09:59:47.378Z,19.00
2018-03-04T10:00:48.036Z,16.80
2018-03-04T10:01:48.690Z,16.60
2018-03-04T10:02:49.363Z,18.30
2018-03-04T10:03:50.012Z,14.30
2018-03-04T10:04:50.645Z,11.80
2018-03-04T10:05:51.387Z,10.90
2018-03-04T10:07:52.323Z,15.10
2018-03-04T10:08:52.983Z,14.30
2018-03-04T10:10:53.918Z,13.70
2018-03-04T10:11:54.565Z,13.20
2018-03-04T10:12:55.337Z,11.80
2018-03-04T10:13:56.641Z,11.00
2018-03-04T10:14:57.427Z,11.30
2018-03-04T10:15:58.158Z,10.20
2018-03-04T10:16:58.806Z,10.80
2018-03-04T10:18:59.731Z,10.00
2018-03-04T10:20:01.085Z,9.90
2018-03-04T10:21:01.756Z,9.10
2018-03-04T10:22:02.408Z,9.30
2018-03-04T10:23:03.095Z,9.50
2018-03-04T10:25:04.048Z,7.80
2018-03-04T10:26:04.750Z,8.30
2018-03-04T10:27:05.418Z,8.30
2018-03-04T10:28:06.066Z,8.60
2018-03-04T10:29:06.738Z,8.60
2018-03-04T10:30:07.423Z,9.90
2018-03-04T10:31:08.098Z,9.80
2018-03-04T10:32:08.785Z,8.20
2018-03-04T10:33:09.446Z,8.50
2018-03-04T10:34:10.118Z,7.30
2018-03-04T10:35:10.745Z,7.40
2018-03-04T10:36:11.434Z,7.60
2018-03-04T10:38:12.888Z,8.30
2018-03-04T10:39:13.509Z,7.80
2018-03-04T10:40:14.764Z,9.20
2018-03-04T10:42:15.790Z,7.30
2018-03-04T10:43:16.484Z,8.10
2018-03-04T10:44:17.134Z,7.00
2018-03-04T10:45:17.940Z,7.00
2018-03-04T10:46:18.651Z,6.80
2018-03-04T10:47:19.376Z,6.50
2018-03-04T10:48:20.322Z,6.60
2018-03-04T10:49:21.960Z,7.10
2018-03-04T10:51:22.859Z,7.10
2018-03-04T10:52:23.495Z,6.50
2018-03-04T10:53:24.134Z,6.70
2018-03-04T10:54:24.871Z,7.00
2018-03-04T10:56:25.792Z,11.20
2018-03-04T10:57:26.443Z,5.90
2018-03-04T10:58:27.100Z,6.90
2018-03-04T10:59:27.739Z,6.60
2018-03-04T11:00:28.395Z,6.60
2018-03-04T11:01:29.094Z,6.10
2018-03-04T11:02:29.763Z,7.40
2018-03-04T11:03:30.450Z,6.70
2018-03-04T11:04:31.101Z,6.60
2018-03-04T11:05:31.743Z,11.70
2018-03-04T11:06:32.353Z,6.00
2018-03-04T11:07:33.009Z,5.40
2018-03-04T11:08:33.648Z,6.10
2018-03-04T11:09:34.286Z,6.00
2018-03-04T11:10:34.935Z,7.40
2018-03-04T11:11:35.715Z,6.00
2018-03-04T11:12:36.370Z,7.50
2018-03-04T11:13:36.999Z,7.20
2018-03-04T11:14:37.645Z,5.20
2018-03-04T11:15:38.296Z,5.50
2018-03-04T11:16:38.943Z,8.50
2018-03-04T11:17:39.615Z,8.10
2018-03-04T11:18:40.250Z,14.20
2018-03-04T11:19:40.869Z,6.60
2018-03-04T11:20:41.565Z,7.60
2018-03-04T11:21:42.240Z,6.50
2018-03-04T11:22:42.910Z,7.30
2018-03-04T11:23:43.562Z,5.90
2018-03-04T11:25:44.451Z,6.20
2018-03-04T11:26:45.106Z,7.70
2018-03-04T11:27:45.766Z,6.20
2018-03-04T11:28:46.440Z,6.00
2018-03-04T11:29:47.092Z,5.90
2018-03-04T11:30:47.731Z,7.00
2018-03-04T11:31:48.448Z,6.00
2018-03-04T11:32:49.115Z,4.70
2018-03-04T11:33:49.746Z,5.90
2018-03-04T11:34:50.430Z,5.50
2018-03-04T11:35:51.059Z,5.00
2018-03-04T11:37:51.998Z,5.10
2018-03-04T11:38:52.635Z,5.60
2018-03-04T11:40:53.549Z,4.90
2018-03-04T11:41:54.186Z,4.30
2018-03-04T11:42:54.857Z,5.40
2018-03-04T11:43:55.487Z,4.10
2018-03-04T11:44:56.130Z,5.90
2018-03-04T11:45:56.790Z,6.10
2018-03-04T11:46:57.426Z,5.30
2018-03-04T11:47:58.081Z,5.20
2018-03-04T11:49:58.971Z,6.00
2018-03-04T11:50:59.632Z,4.70
2018-03-04T11:52:00.358Z,7.60
2018-03-04T11:53:01.056Z,5.90
2018-03-04T11:54:01.708Z,5.60
2018-03-04T11:55:02.362Z,5.50
2018-03-04T11:56:03.119Z,6.20
2018-03-04T11:57:03.762Z,5.30
2018-03-04T11:58:04.429Z,4.60
2018-03-04T11:59:05.087Z,5.50
2018-03-04T12:00:05.750Z,5.80
2018-03-04T12:01:06.417Z,6.30
2018-03-04T12:02:07.097Z,5.20
2018-03-04T12:03:07.750Z,4.20
2018-03-04T12:04:08.396Z,6.90
2018-03-04T12:05:09.048Z,4.90
2018-03-04T12:07:09.992Z,3.50
2018-03-04T12:08:10.705Z,3.40
2018-03-04T12:09:11.410Z,3.60
2018-03-04T12:10:12.041Z,6.50
2018-03-04T12:11:12.688Z,7.10
2018-03-04T12:12:13.318Z,3.90
2018-03-04T12:13:13.975Z,5.20
2018-03-04T12:14:14.641Z,6.90
2018-03-04T12:15:15.338Z,4.10
2018-03-04T12:16:16.030Z,5.80
2018-03-04T12:17:16.653Z,4.70
2018-03-04T12:18:17.319Z,6.90
2018-03-04T12:19:17.969Z,5.70
2018-03-04T12:20:18.679Z,6.20
2018-03-04T12:21:19.308Z,3.90
2018-03-04T12:22:19.958Z,5.30
2018-03-04T12:23:20.587Z,4.80
2018-03-04T12:24:21.218Z,3.70
2018-03-04T12:25:22.608Z,4.40
2018-03-04T12:26:23.485Z,5.20
2018-03-04T12:27:24.106Z,6.90
2018-03-04T12:28:24.758Z,5.80
2018-03-04T12:29:25.431Z,3.80
2018-03-04T12:30:26.112Z,5.40
2018-03-04T12:31:26.776Z,5.30
2018-03-04T12:32:27.390Z,5.60
2018-03-04T12:33:28.035Z,3.10
2018-03-04T12:34:28.706Z,6.40
2018-03-04T12:35:29.353Z,4.10
2018-03-04T12:36:30.004Z,3.40
2018-03-04T12:38:30.951Z,2.80
2018-03-04T12:40:32.253Z,2.90
2018-03-04T12:41:33.028Z,4.80
2018-03-04T12:43:33.960Z,3.80
2018-03-04T12:44:34.648Z,3.20
2018-03-04T12:45:35.335Z,4.10
2018-03-04T12:47:36.284Z,2.90
2018-03-04T12:48:36.926Z,3.40
2018-03-04T12:49:37.546Z,4.30
2018-03-04T12:50:38.224Z,3.70
2018-03-04T12:51:38.991Z,4.00
2018-03-04T12:52:39.614Z,6.50
2018-03-04T12:53:40.871Z,5.70
2018-03-04T12:55:41.824Z,2.80
2018-03-04T12:56:42.508Z,3.00
2018-03-04T12:57:43.149Z,3.60
2018-03-04T12:58:43.791Z,3.30
2018-03-04T13:00:45.447Z,3.40
2018-03-04T13:01:46.106Z,3.50
2018-03-04T13:02:46.780Z,4.40
2018-03-04T13:03:47.489Z,4.50
2018-03-04T13:04:48.177Z,3.70
2018-03-04T13:05:48.960Z,2.90
2018-03-04T13:06:49.737Z,2.80
2018-03-04T13:07:50.413Z,3.50
2018-03-04T13:08:51.803Z,3.40
2018-03-04T13:09:52.502Z,3.40
2018-03-04T13:10:53.175Z,2.40
2018-03-04T13:11:53.827Z,2.30
2018-03-04T13:12:54.506Z,3.70
2018-03-04T13:14:55.520Z,3.30
2018-03-04T13:15:56.216Z,3.30
2018-03-04T13:16:56.875Z,3.70
2018-03-04T13:17:57.549Z,5.50
2018-03-04T13:18:58.201Z,4.50
2018-03-04T13:19:58.852Z,3.90
2018-03-04T13:20:59.509Z,2.80
2018-03-04T13:22:00.158Z,4.40
2018-03-04T13:24:01.054Z,3.40
2018-03-04T13:25:01.731Z,2.70
2018-03-04T13:27:02.679Z,3.50
2018-03-04T13:28:03.336Z,4.20
2018-03-04T13:29:03.989Z,5.30
2018-03-04T13:30:04.650Z,3.50
2018-03-04T13:32:05.637Z,2.90
2018-03-04T13:33:06.331Z,4.60
2018-03-04T13:34:06.976Z,3.40
2018-03-04T13:35:08.255Z,5.30
2018-03-04T13:36:09.324Z,5.10
2018-03-04T13:37:11.012Z,2.50
2018-03-04T13:38:12.413Z,2.90
2018-03-04T13:39:13.062Z,2.70
2018-03-04T13:41:14.017Z,5.10
2018-03-04T13:42:15.487Z,5.40
2018-03-04T13:43:16.121Z,4.20
2018-03-04T13:44:16.834Z,4.60
2018-03-04T13:45:17.467Z,3.60
2018-03-04T13:46:18.309Z,3.90
2018-03-04T13:47:19.612Z,3.10
2018-03-04T13:48:20.311Z,4.20
2018-03-04T13:49:20.959Z,4.40
2018-03-04T13:50:21.624Z,5.50
2018-03-04T13:51:23.013Z,5.90
2018-03-04T13:52:23.686Z,3.00
2018-03-04T13:53:24.329Z,4.40
2018-03-04T13:54:25.003Z,3.90
2018-03-04T13:55:25.626Z,3.70
2018-03-04T13:56:26.348Z,3.40
2018-03-04T13:57:27.058Z,4.10
2018-03-04T13:58:27.794Z,2.80
2018-03-04T13:59:28.469Z,2.50
2018-03-04T14:00:29.106Z,2.50
2018-03-04T14:01:29.864Z,3.00
2018-03-04T14:02:30.560Z,2.40
2018-03-04T14:03:31.334Z,4.50
2018-03-04T14:04:31.992Z,2.40
2018-03-04T14:05:32.723Z,2.90
2018-03-04T14:06:33.402Z,3.50
2018-03-04T14:07:34.079Z,3.40
2018-03-04T14:08:34.716Z,2.60
2018-03-04T14:10:36.251Z,3.20
2018-03-04T14:11:36.889Z,5.10
2018-03-04T14:12:37.521Z,3.20